Aviation Digital Data Service (ADDS)

Output produced by METARs form (2111 UTC 16 February 2019)
found at http://www.aviationweather.gov/metar/data/
 
METAR text: MYNN 162100Z 20006KT 170V240 9999 SCT022 25/19 A2993
Conditions at: MYNN (NASSAU INTL , BS) observed 2100 UTC 16 February 2019
Temperature: 25.0°C (77°F)
Dewpoint: 19.0°C (66°F) [RH = 69%]
Pressure (altimeter): 29.93 inches Hg (1013.6 mb)
Winds: from the SSW (200 degrees) at 7 MPH (6 knots; 3.1 m/s)
Visibility: 6 or more miles (10+ km)
Ceiling: at least 12,000 feet AGL
Clouds: scattered clouds at 2200 feet AGL
Weather: no significant weather observed at this time

METAR text: MYNN 162000Z 19007KT 140V230 9999 FEW020 26/20 A2991 RMK PKWND 11KT
Conditions at: MYNN (NASSAU INTL , BS) observed 2000 UTC 16 February 2019
Temperature: 26.0°C (79°F)
Dewpoint: 20.0°C (68°F) [RH = 70%]
Pressure (altimeter): 29.91 inches Hg (1013.0 mb)
Winds: from the S (190 degrees) at 8 MPH (7 knots; 3.6 m/s)
Visibility: 6 or more miles (10+ km)
Ceiling: at least 12,000 feet AGL
Clouds: few clouds at 2000 feet AGL
Weather: no significant weather observed at this time

METAR text: MYNN 161900Z 20006KT 130V260 9999 FEW020 SCT180 27/18 A2993
Conditions at: MYNN (NASSAU INTL , BS) observed 1900 UTC 16 February 2019
Temperature: 27.0°C (81°F)
Dewpoint: 18.0°C (64°F) [RH = 58%]
Pressure (altimeter): 29.93 inches Hg (1013.6 mb)
Winds: from the SSW (200 degrees) at 7 MPH (6 knots; 3.1 m/s)
Visibility: 6 or more miles (10+ km)
Ceiling: at least 12,000 feet AGL
Clouds: few clouds at 2000 feet AGL
scattered clouds at 18000 feet AGL
Weather: no significant weather observed at this time

METAR text: MYNN 161800Z 24007KT 190V270 9999 FEW020 BKN180 27/17 A2997
Conditions at: MYNN (NASSAU INTL , BS) observed 1800 UTC 16 February 2019
Temperature: 27.0°C (81°F)
Dewpoint: 17.0°C (63°F) [RH = 54%]
Pressure (altimeter): 29.97 inches Hg (1015.0 mb)
Winds: from the WSW (240 degrees) at 8 MPH (7 knots; 3.6 m/s)
Visibility: 6 or more miles (10+ km)
Ceiling: 18000 feet AGL
Clouds: few clouds at 2000 feet AGL
broken clouds at 18000 feet AGL
Weather: no significant weather observed at this time

METAR text: MYNN 161700Z 25007KT 220V290 9999 FEW020 BKN180 26/19 A3000
Conditions at: MYNN (NASSAU INTL , BS) observed 1700 UTC 16 February 2019
Temperature: 26.0°C (79°F)
Dewpoint: 19.0°C (66°F) [RH = 65%]
Pressure (altimeter): 30.00 inches Hg (1016.0 mb)
Winds: from the WSW (250 degrees) at 8 MPH (7 knots; 3.6 m/s)
Visibility: 6 or more miles (10+ km)
Ceiling: 18000 feet AGL
Clouds: few clouds at 2000 feet AGL
broken clouds at 18000 feet AGL
Weather: no significant weather observed at this time

METAR text: MYNN 161600Z 31007KT 9999 FEW020 SCT030 26/18 A3002
Conditions at: MYNN (NASSAU INTL , BS) observed 1600 UTC 16 February 2019
Temperature: 26.0°C (79°F)
Dewpoint: 18.0°C (64°F) [RH = 61%]
Pressure (altimeter): 30.02 inches Hg (1016.7 mb)
Winds: from the NW (310 degrees) at 8 MPH (7 knots; 3.6 m/s)
Visibility: 6 or more miles (10+ km)
Ceiling: at least 12,000 feet AGL
Clouds: few clouds at 2000 feet AGL
scattered clouds at 3000 feet AGL
Weather: no significant weather observed at this time

METAR text: MYNN 161500Z 25004KT 9999 FEW020 SCT030 BKN200 25/19 A3002
Conditions at: MYNN (NASSAU INTL , BS) observed 1500 UTC 16 February 2019
Temperature: 25.0°C (77°F)
Dewpoint: 19.0°C (66°F) [RH = 69%]
Pressure (altimeter): 30.02 inches Hg (1016.7 mb)
Winds: from the WSW (250 degrees) at 5 MPH (4 knots; 2.1 m/s)
Visibility: 6 or more miles (10+ km)
Ceiling: 20000 feet AGL
Clouds: few clouds at 2000 feet AGL
scattered clouds at 3000 feet AGL
broken clouds at 20000 feet AGL
Weather: no significant weather observed at this time

METAR text: MYNN 161400Z VRB02KT 9999 FEW020 SCT030 23/20 A3003
Conditions at: MYNN (NASSAU INTL , BS) observed 1400 UTC 16 February 2019
Temperature: 23.0°C (73°F)
Dewpoint: 20.0°C (68°F) [RH = 83%]
Pressure (altimeter): 30.03 inches Hg (1017.0 mb)
Winds: variable direction winds at 2 MPH (2 knots; 1.0 m/s)
Visibility: 6 or more miles (10+ km)
Ceiling: at least 12,000 feet AGL
Clouds: few clouds at 2000 feet AGL
scattered clouds at 3000 feet AGL
Weather: no significant weather observed at this time

METAR text: MYNN 161300Z COR VRB01KT 9999 SCT020 22/21 A3001
Conditions at: MYNN (NASSAU INTL , BS) observed 1300 UTC 16 February 2019
Temperature: 22.0°C (72°F)
Dewpoint: 21.0°C (70°F) [RH = 94%]
Pressure (altimeter): 30.01 inches Hg (1016.3 mb)
Winds: variable direction winds at 1 MPH (1 knots; 0.5 m/s)
Visibility: 6 or more miles (10+ km)
Ceiling: at least 12,000 feet AGL
Clouds: scattered clouds at 2000 feet AGL
Weather: no significant weather observed at this time

METAR text: MYNN 161200Z 00000KT 9999 FEW018 18/17 A2998 RMK BCFG
Conditions at: MYNN (NASSAU INTL , BS) observed 1200 UTC 16 February 2019
Temperature: 18.0°C (64°F)
Dewpoint: 17.0°C (63°F) [RH = 94%]
Pressure (altimeter): 29.98 inches Hg (1015.3 mb)
Winds: calm
Visibility: 6 or more miles (10+ km)
Ceiling: at least 12,000 feet AGL
Clouds: few clouds at 1800 feet AGL
Weather: no significant weather observed at this time

METAR text: MYNN 161100Z 00000KT 9999 FEW018 SCT200 17/17 A2995
Conditions at: MYNN (NASSAU INTL , BS) observed 1100 UTC 16 February 2019
Temperature: 17.0°C (63°F)
Dewpoint: 17.0°C (63°F) [RH = 100%]
Pressure (altimeter): 29.95 inches Hg (1014.3 mb)
Winds: calm
Visibility: 6 or more miles (10+ km)
Ceiling: at least 12,000 feet AGL
Clouds: few clouds at 1800 feet AGL
scattered clouds at 20000 feet AGL
Weather: no significant weather observed at this time

METAR text: MYNN 161000Z 00000KT CAVOK 17/16 A2993
Conditions at: MYNN (NASSAU INTL , BS) observed 1000 UTC 16 February 2019
Temperature: 17.0°C (63°F)
Dewpoint: 16.0°C (61°F) [RH = 94%]
Pressure (altimeter): 29.93 inches Hg (1013.6 mb)
Winds: calm
Visibility: 6 or more miles (10+ km)
Ceiling: ceiling and visibility are OK
Clouds: unknown
Weather: no significant weather observed at this time

METAR text: MYNN 160900Z VRB01KT CAVOK 18/17 A2993
Conditions at: MYNN (NASSAU INTL , BS) observed 0900 UTC 16 February 2019
Temperature: 18.0°C (64°F)
Dewpoint: 17.0°C (63°F) [RH = 94%]
Pressure (altimeter): 29.93 inches Hg (1013.6 mb)
Winds: variable direction winds at 1 MPH (1 knots; 0.5 m/s)
Visibility: 6 or more miles (10+ km)
Ceiling: ceiling and visibility are OK
Clouds: unknown
Weather: no significant weather observed at this time

METAR text: MYNN 160800Z 00000KT 9999 FEW020 SCT200 18/17 A2993
Conditions at: MYNN (NASSAU INTL , BS) observed 0800 UTC 16 February 2019
Temperature: 18.0°C (64°F)
Dewpoint: 17.0°C (63°F) [RH = 94%]
Pressure (altimeter): 29.93 inches Hg (1013.6 mb)
Winds: calm
Visibility: 6 or more miles (10+ km)
Ceiling: at least 12,000 feet AGL
Clouds: few clouds at 2000 feet AGL
scattered clouds at 20000 feet AGL
Weather: no significant weather observed at this time

METAR text: MYNN 160700Z VRB01KT 9999 FEW020 SCT200 18/17 A2995
Conditions at: MYNN (NASSAU INTL , BS) observed 0700 UTC 16 February 2019
Temperature: 18.0°C (64°F)
Dewpoint: 17.0°C (63°F) [RH = 94%]
Pressure (altimeter): 29.95 inches Hg (1014.3 mb)
Winds: variable direction winds at 1 MPH (1 knots; 0.5 m/s)
Visibility: 6 or more miles (10+ km)
Ceiling: at least 12,000 feet AGL
Clouds: few clouds at 2000 feet AGL
scattered clouds at 20000 feet AGL
Weather: no significant weather observed at this time

METAR text: MYNN 160600Z 00000KT 9999 FEW020 SCT200 18/17 A2996
Conditions at: MYNN (NASSAU INTL , BS) observed 0600 UTC 16 February 2019
Temperature: 18.0°C (64°F)
Dewpoint: 17.0°C (63°F) [RH = 94%]
Pressure (altimeter): 29.96 inches Hg (1014.6 mb)
Winds: calm
Visibility: 6 or more miles (10+ km)
Ceiling: at least 12,000 feet AGL
Clouds: few clouds at 2000 feet AGL
scattered clouds at 20000 feet AGL
Weather: no significant weather observed at this time

METAR text: MYNN 160500Z 00000KT 9999 FEW020 BKN200 19/18 2997
Conditions at: MYNN (NASSAU INTL , BS) observed 0500 UTC 16 February 2019
Temperature: 19.0°C (66°F)
Dewpoint: 18.0°C (64°F) [RH = 94%]
Pressure (altimeter): missing
Winds: calm
Visibility: 6 or more miles (10+ km)
Ceiling: 20000 feet AGL
Clouds: few clouds at 2000 feet AGL
broken clouds at 20000 feet AGL
Weather: no significant weather observed at this time

METAR text: MYNN 160400Z 19003KT 9999 FEW020 BKN200 19/18 A2998
Conditions at: MYNN (NASSAU INTL , BS) observed 0400 UTC 16 February 2019
Temperature: 19.0°C (66°F)
Dewpoint: 18.0°C (64°F) [RH = 94%]
Pressure (altimeter): 29.98 inches Hg (1015.3 mb)
Winds: from the S (190 degrees) at 3 MPH (3 knots; 1.5 m/s)
Visibility: 6 or more miles (10+ km)
Ceiling: 20000 feet AGL
Clouds: few clouds at 2000 feet AGL
broken clouds at 20000 feet AGL
Weather: no significant weather observed at this time

METAR text: MYNN 160300Z VRB02KT 9999 FEW020 BKN200 20/19 A2998
Conditions at: MYNN (NASSAU INTL , BS) observed 0300 UTC 16 February 2019
Temperature: 20.0°C (68°F)
Dewpoint: 19.0°C (66°F) [RH = 94%]
Pressure (altimeter): 29.98 inches Hg (1015.3 mb)
Winds: variable direction winds at 2 MPH (2 knots; 1.0 m/s)
Visibility: 6 or more miles (10+ km)
Ceiling: 20000 feet AGL
Clouds: few clouds at 2000 feet AGL
broken clouds at 20000 feet AGL
Weather: no significant weather observed at this time

METAR text: MYNN 160200Z 00000KT 9999 FEW020 BKN200 21/19 A2999
Conditions at: MYNN (NASSAU INTL , BS) observed 0200 UTC 16 February 2019
Temperature: 21.0°C (70°F)
Dewpoint: 19.0°C (66°F) [RH = 88%]
Pressure (altimeter): 29.99 inches Hg (1015.7 mb)
Winds: calm
Visibility: 6 or more miles (10+ km)
Ceiling: 20000 feet AGL
Clouds: few clouds at 2000 feet AGL
broken clouds at 20000 feet AGL
Weather: no significant weather observed at this time

METAR text: MYNN 160100Z VRB02KT 9999 FEW020 BKN200 21/19 A2996
Conditions at: MYNN (NASSAU INTL , BS) observed 0100 UTC 16 February 2019
Temperature: 21.0°C (70°F)
Dewpoint: 19.0°C (66°F) [RH = 88%]
Pressure (altimeter): 29.96 inches Hg (1014.6 mb)
Winds: variable direction winds at 2 MPH (2 knots; 1.0 m/s)
Visibility: 6 or more miles (10+ km)
Ceiling: 20000 feet AGL
Clouds: few clouds at 2000 feet AGL
broken clouds at 20000 feet AGL
Weather: no significant weather observed at this time

METAR text: MYNN 160000Z 07003KT 040V110 9999 FEW020 BKN200 23/19 A2996
Conditions at: MYNN (NASSAU INTL , BS) observed 0000 UTC 16 February 2019
Temperature: 23.0°C (73°F)
Dewpoint: 19.0°C (66°F) [RH = 78%]
Pressure (altimeter): 29.96 inches Hg (1014.6 mb)
Winds: from the ENE (70 degrees) at 3 MPH (3 knots; 1.5 m/s)
Visibility: 6 or more miles (10+ km)
Ceiling: 20000 feet AGL
Clouds: few clouds at 2000 feet AGL
broken clouds at 20000 feet AGL
Weather: no significant weather observed at this time

METAR text: MYNN 152300Z 04004KT 9999 FEW020 BKN200 23/19 A2994
Conditions at: MYNN (NASSAU INTL , BS) observed 2300 UTC 15 February 2019
Temperature: 23.0°C (73°F)
Dewpoint: 19.0°C (66°F) [RH = 78%]
Pressure (altimeter): 29.94 inches Hg (1014.0 mb)
Winds: from the NE (40 degrees) at 5 MPH (4 knots; 2.1 m/s)
Visibility: 6 or more miles (10+ km)
Ceiling: 20000 feet AGL
Clouds: few clouds at 2000 feet AGL
broken clouds at 20000 feet AGL
Weather: no significant weather observed at this time

METAR text: MYNN 152200Z 02007KT 9999 FEW022 BKN200 25/19 A2994
Conditions at: MYNN (NASSAU INTL , BS) observed 2200 UTC 15 February 2019
Temperature: 25.0°C (77°F)
Dewpoint: 19.0°C (66°F) [RH = 69%]
Pressure (altimeter): 29.94 inches Hg (1014.0 mb)
Winds: from the NNE (20 degrees) at 8 MPH (7 knots; 3.6 m/s)
Visibility: 6 or more miles (10+ km)
Ceiling: 20000 feet AGL
Clouds: few clouds at 2200 feet AGL
broken clouds at 20000 feet AGL
Weather: no significant weather observed at this time

METAR text: MYNN 152100Z 02008KT 340V070 9999 FEW022 SCT090 26/21 A2993
Conditions at: MYNN (NASSAU INTL , BS) observed 2100 UTC 15 February 2019
Temperature: 26.0°C (79°F)
Dewpoint: 21.0°C (70°F) [RH = 74%]
Pressure (altimeter): 29.93 inches Hg (1013.6 mb)
Winds: from the NNE (20 degrees) at 9 MPH (8 knots; 4.1 m/s)
Visibility: 6 or more miles (10+ km)
Ceiling: at least 12,000 feet AGL
Clouds: few clouds at 2200 feet AGL
scattered clouds at 9000 feet AGL
Weather: no significant weather observed at this time

METAR text: MYNN 152000Z 03009KT 350V050 9999 FEW022 SCT045 25/20 A2994
Conditions at: MYNN (NASSAU INTL , BS) observed 2000 UTC 15 February 2019
Temperature: 25.0°C (77°F)
Dewpoint: 20.0°C (68°F) [RH = 74%]
Pressure (altimeter): 29.94 inches Hg (1014.0 mb)
Winds: from the NNE (30 degrees) at 10 MPH (9 knots; 4.6 m/s)
Visibility: 6 or more miles (10+ km)
Ceiling: at least 12,000 feet AGL
Clouds: few clouds at 2200 feet AGL
scattered clouds at 4500 feet AGL
Weather: no significant weather observed at this time

METAR text: MYNN 151900Z 02007KT 350V380 9999 FEW022 BKN045 25/20 A2996 RMK PKWND 12KT
Conditions at: MYNN (NASSAU INTL , BS) observed 1900 UTC 15 February 2019
Temperature: 25.0°C (77°F)
Dewpoint: 20.0°C (68°F) [RH = 74%]
Pressure (altimeter): 29.96 inches Hg (1014.6 mb)
Winds: from the NNE (20 degrees) at 8 MPH (7 knots; 3.6 m/s)
Visibility: 6 or more miles (10+ km)
Ceiling: 4500 feet AGL
Clouds: few clouds at 2200 feet AGL
broken clouds at 4500 feet AGL
Weather: no significant weather observed at this time

METAR text: MYNN 151800Z 02007KT 9999 FEW022 SCT045 25/20 A2998 RMK PKWND 12KT
Conditions at: MYNN (NASSAU INTL , BS) observed 1800 UTC 15 February 2019
Temperature: 25.0°C (77°F)
Dewpoint: 20.0°C (68°F) [RH = 74%]
Pressure (altimeter): 29.98 inches Hg (1015.3 mb)
Winds: from the NNE (20 degrees) at 8 MPH (7 knots; 3.6 m/s)
Visibility: 6 or more miles (10+ km)
Ceiling: at least 12,000 feet AGL
Clouds: few clouds at 2200 feet AGL
scattered clouds at 4500 feet AGL
Weather: no significant weather observed at this time

METAR text: MYNN 151700Z 01007KT 9999 FEW022 SCT045 25/20 A3001 RMK PKWND 12KT
Conditions at: MYNN (NASSAU INTL , BS) observed 1700 UTC 15 February 2019
Temperature: 25.0°C (77°F)
Dewpoint: 20.0°C (68°F) [RH = 74%]
Pressure (altimeter): 30.01 inches Hg (1016.3 mb)
Winds: from the N (10 degrees) at 8 MPH (7 knots; 3.6 m/s)
Visibility: 6 or more miles (10+ km)
Ceiling: at least 12,000 feet AGL
Clouds: few clouds at 2200 feet AGL
scattered clouds at 4500 feet AGL
Weather: no significant weather observed at this time

METAR text: MYNN 151600Z 05006KT 9999 FEW020 SCT040 24/19 A3000
Conditions at: MYNN (NASSAU INTL , BS) observed 1600 UTC 15 February 2019
Temperature: 24.0°C (75°F)
Dewpoint: 19.0°C (66°F) [RH = 74%]
Pressure (altimeter): 30.00 inches Hg (1016.0 mb)
Winds: from the NE (50 degrees) at 7 MPH (6 knots; 3.1 m/s)
Visibility: 6 or more miles (10+ km)
Ceiling: at least 12,000 feet AGL
Clouds: few clouds at 2000 feet AGL
scattered clouds at 4000 feet AGL
Weather: no significant weather observed at this time

METAR text: MYNN 151500Z 04006KT 350V010 9999 FEW020 SCT040 24/19 A3002
Conditions at: MYNN (NASSAU INTL , BS) observed 1500 UTC 15 February 2019
Temperature: 24.0°C (75°F)
Dewpoint: 19.0°C (66°F) [RH = 74%]
Pressure (altimeter): 30.02 inches Hg (1016.7 mb)
Winds: from the NE (40 degrees) at 7 MPH (6 knots; 3.1 m/s)
Visibility: 6 or more miles (10+ km)
Ceiling: at least 12,000 feet AGL
Clouds: few clouds at 2000 feet AGL
scattered clouds at 4000 feet AGL
Weather: no significant weather observed at this time

METAR text: MYNN 151400Z 08004KT 9999 FEW018 SCT040 24/19 A3000 RMK PKWND 8KT
Conditions at: MYNN (NASSAU INTL , BS) observed 1400 UTC 15 February 2019
Temperature: 24.0°C (75°F)
Dewpoint: 19.0°C (66°F) [RH = 74%]
Pressure (altimeter): 30.00 inches Hg (1016.0 mb)
Winds: from the E (80 degrees) at 5 MPH (4 knots; 2.1 m/s)
Visibility: 6 or more miles (10+ km)
Ceiling: at least 12,000 feet AGL
Clouds: few clouds at 1800 feet AGL
scattered clouds at 4000 feet AGL
Weather: no significant weather observed at this time

METAR text: MYNN 151300Z 00000KT 9999 FEW018 SCT040 23/20 A2998
Conditions at: MYNN (NASSAU INTL , BS) observed 1300 UTC 15 February 2019
Temperature: 23.0°C (73°F)
Dewpoint: 20.0°C (68°F) [RH = 83%]
Pressure (altimeter): 29.98 inches Hg (1015.3 mb)
Winds: calm
Visibility: 6 or more miles (10+ km)
Ceiling: at least 12,000 feet AGL
Clouds: few clouds at 1800 feet AGL
scattered clouds at 4000 feet AGL
Weather: no significant weather observed at this time

METAR text: MYNN 151200Z VRB01KT 9999 SCT018 19/18 A2997
Conditions at: MYNN (NASSAU INTL , BS) observed 1200 UTC 15 February 2019
Temperature: 19.0°C (66°F)
Dewpoint: 18.0°C (64°F) [RH = 94%]
Pressure (altimeter): 29.97 inches Hg (1015.0 mb)
Winds: variable direction winds at 1 MPH (1 knots; 0.5 m/s)
Visibility: 6 or more miles (10+ km)
Ceiling: at least 12,000 feet AGL
Clouds: scattered clouds at 1800 feet AGL
Weather: no significant weather observed at this time

METAR text: MYNN 151100Z VRB02KT 9999 SCT018 BKN035 20/19 A2996
Conditions at: MYNN (NASSAU INTL , BS) observed 1100 UTC 15 February 2019
Temperature: 20.0°C (68°F)
Dewpoint: 19.0°C (66°F) [RH = 94%]
Pressure (altimeter): 29.96 inches Hg (1014.6 mb)
Winds: variable direction winds at 2 MPH (2 knots; 1.0 m/s)
Visibility: 6 or more miles (10+ km)
Ceiling: 3500 feet AGL
Clouds: scattered clouds at 1800 feet AGL
broken clouds at 3500 feet AGL
Weather: no significant weather observed at this time

METAR text: MYNN 151000Z VRB02KT 9999 FEW018 SCT035 19/19 A2994
Conditions at: MYNN (NASSAU INTL , BS) observed 1000 UTC 15 February 2019
Temperature: 19.0°C (66°F)
Dewpoint: 19.0°C (66°F) [RH = 100%]
Pressure (altimeter): 29.94 inches Hg (1014.0 mb)
Winds: variable direction winds at 2 MPH (2 knots; 1.0 m/s)
Visibility: 6 or more miles (10+ km)
Ceiling: at least 12,000 feet AGL
Clouds: few clouds at 1800 feet AGL
scattered clouds at 3500 feet AGL
Weather: no significant weather observed at this time

Forecast for: MYNN (NASSAU INTL , BS)
Text: MYNN 161555Z 1618/1718 29007KT 9999 FEW020 SCT030 BKN200
Forecast period: 1800 UTC 16 February 2019 to 0000 UTC 17 February 2019
Forecast type: FROM: standard forecast or significant change
Winds: from the WNW (290 degrees) at 8 MPH (7 knots; 3.6 m/s)
Visibility: 6 or more miles 10+ km)
Ceiling: 20000 feet AGL
Clouds: few clouds at 2000 feet AGL
scattered clouds at 3000 feet AGL
broken clouds at 20000 feet AGL
Weather: no significant weather forecast for this period
Text: BECMG 1700/1702 VRB02KT
Forecast period: 0000 to 1300 UTC 17 February 2019
Forecast type: BECOMING: Conditions expected to become as follows by 0200 UTC 17 February 2019
Winds: variable direction winds at 2 MPH (2 knots; 1.0 m/s)
Visibility: 6 or more miles 10+ km)
Ceiling: 20000 feet AGL
Clouds: few clouds at 2000 feet AGL
scattered clouds at 3000 feet AGL
broken clouds at 20000 feet AGL
Weather: no significant weather forecast for this period
Text: BECMG 1713/1715 19006KT
Forecast period: 1300 to 1800 UTC 17 February 2019
Forecast type: BECOMING: Conditions expected to become as follows by 1500 UTC 17 February 2019
Winds: from the S (190 degrees) at 7 MPH (6 knots; 3.1 m/s)
Visibility: 6 or more miles 10+ km)
Ceiling: 20000 feet AGL
Clouds: few clouds at 2000 feet AGL
scattered clouds at 3000 feet AGL
broken clouds at 20000 feet AGL
Weather: no significant weather forecast for this period